Time;durP1;ratioP1;P1;durP2;ratioP2;P2;SDS_P1;SDS_P2;PMS_P1;PMS_P2;Temp;Humidity;BMP_temperature;BMP_pressure;BME280_temperature;BME280_humidity;BME280_pressure;Samples;Min_cycle;Max_cycle;Signal;HPM_P1;HPM_P2
2023/12/26 00:00:07;;;;;;;6.60;3.63;;;5.40;75.00;;;;;;5051405;28;20872;-72
2023/12/26 00:02:33;;;;;;;4.80;2.80;;;5.40;74.50;;;;;;5014708;28;20029;-72
2023/12/26 00:04:59;;;;;;;6.40;3.15;;;5.30;74.60;;;;;;5030242;28;20529;-71
2023/12/26 00:07:25;;;;;;;7.65;3.33;;;5.30;74.20;;;;;;5031396;28;20383;-72
2023/12/26 00:09:51;;;;;;;9.50;3.13;;;5.20;74.00;;;;;;5030047;28;20041;-72
2023/12/26 00:12:18;;;;;;;7.00;3.40;;;5.20;74.20;;;;;;5042494;28;20033;-71
2023/12/26 00:14:44;;;;;;;5.93;3.13;;;5.20;74.10;;;;;;5051786;28;20065;-71
2023/12/26 00:17:10;;;;;;;9.48;3.63;;;5.20;74.00;;;;;;5049832;28;20080;-72
2023/12/26 00:19:36;;;;;;;4.95;3.72;;;5.20;74.00;;;;;;5049677;28;20049;-71
2023/12/26 00:22:02;;;;;;;8.80;4.60;;;5.20;74.00;;;;;;5066250;28;20568;-71
2023/12/26 00:24:28;;;;;;;6.38;3.13;;;5.20;74.00;;;;;;5062663;28;20115;-72
2023/12/26 00:26:54;;;;;;;3.80;2.40;;;5.30;74.00;;;;;;5069837;28;20036;-71
2023/12/26 00:29:20;;;;;;;6.97;3.42;;;5.30;73.90;;;;;;5071679;28;20521;-72
2023/12/26 00:31:47;;;;;;;2.85;2.53;;;5.30;73.90;;;;;;5069917;28;20036;-72
2023/12/26 00:34:13;;;;;;;6.47;4.10;;;5.30;73.80;;;;;;5071599;28;20052;-72
2023/12/26 00:36:39;;;;;;;4.68;2.70;;;5.30;73.90;;;;;;5071869;28;20040;-72
2023/12/26 00:39:06;;;;;;;3.53;2.67;;;5.40;73.80;;;;;;5075233;28;20040;-72
2023/12/26 00:41:32;;;;;;;6.93;3.50;;;5.40;73.80;;;;;;5073209;28;20123;-71
2023/12/26 00:43:58;;;;;;;4.68;2.90;;;5.30;73.80;;;;;;5074310;28;20040;-71
2023/12/26 00:46:24;;;;;;;7.55;3.17;;;5.40;73.90;;;;;;5073321;28;20071;-71
2023/12/26 00:48:50;;;;;;;3.80;2.47;;;5.30;73.80;;;;;;5073659;28;20379;-72
2023/12/26 00:51:16;;;;;;;;;;;5.40;73.80;;;;;;5067875;28;20581;-71
2023/12/26 00:53:42;;;;;;;11.82;6.38;;;5.40;73.60;;;;;;5074951;28;19920;-72
2023/12/26 00:56:08;;;;;;;20.60;7.13;;;5.40;73.80;;;;;;5074991;28;20097;-72
2023/12/26 00:58:35;;;;;;;18.05;5.88;;;5.40;73.70;;;;;;5056883;28;20522;-71
2023/12/26 01:01:01;;;;;;;10.57;5.63;;;5.40;73.50;;;;;;5067928;28;20036;-72
2023/12/26 01:03:27;;;;;;;9.98;3.42;;;5.40;73.00;;;;;;5071014;28;20037;-71
2023/12/26 01:05:53;;;;;;;6.72;3.90;;;5.40;73.40;;;;;;5074301;28;20143;-72
2023/12/26 01:08:19;;;;;;;4.07;1.80;;;5.40;73.40;;;;;;5074696;28;20040;-72
2023/12/26 01:10:45;;;;;;;4.43;3.25;;;5.40;73.50;;;;;;5072663;28;20441;-71
2023/12/26 01:13:12;;;;;;;3.97;2.35;;;5.40;73.30;;;;;;5071946;28;20424;-71
2023/12/26 01:15:38;;;;;;;;;;;5.40;72.50;;;;;;5073262;28;20444;-72
2023/12/26 01:18:05;;;;;;;1.57;1.00;;;5.30;73.00;;;;;;5071431;28;19969;-72
2023/12/26 01:20:31;;;;;;;5.25;2.40;;;5.30;73.20;;;;;;5052412;28;20537;-72
2023/12/26 01:22:57;;;;;;;4.80;2.75;;;5.30;73.20;;;;;;5054499;28;20482;-72
2023/12/26 01:25:23;;;;;;;5.57;2.47;;;5.30;73.20;;;;;;5054085;28;20036;-72
2023/12/26 01:27:49;;;;;;;2.80;1.98;;;5.30;73.20;;;;;;5052324;28;20037;-71
2023/12/26 01:30:15;;;;;;;7.15;2.63;;;5.20;73.20;;;;;;5033939;28;20038;-72
2023/12/26 01:32:41;;;;;;;2.80;1.67;;;5.30;73.30;;;;;;5053525;28;20029;-72
2023/12/26 01:35:08;;;;;;;2.65;1.75;;;5.30;73.40;;;;;;5054331;28;20379;-72
2023/12/26 01:37:34;;;;;;;;;;;5.30;73.00;;;;;;5059655;28;20033;-73
2023/12/26 01:40:00;;;;;;;10.80;3.58;;;5.40;73.70;;;;;;5097323;28;20373;-72
2023/12/26 01:42:26;;;;;;;7.47;3.30;;;5.30;73.70;;;;;;5067442;28;20551;-72
2023/12/26 01:44:52;;;;;;;2.67;1.83;;;5.40;73.80;;;;;;5072591;28;20040;-72
2023/12/26 01:47:19;;;;;;;4.70;1.92;;;5.40;74.20;;;;;;5073829;28;20037;-71
2023/12/26 01:49:45;;;;;;;15.73;2.60;;;5.40;75.20;;;;;;5072672;28;20040;-72
2023/12/26 01:52:12;;;;;;;;;;;5.40;74.20;;;;;;5069216;28;20151;-71
2023/12/26 01:54:39;;;;;;;4.53;1.95;;;5.40;73.90;;;;;;5072840;28;20443;-72
2023/12/26 01:57:24;;;;;;;5.20;1.92;;;5.40;74.20;;;;;;5067302;28;20032;-71
2023/12/26 01:59:50;;;;;;;4.47;2.45;;;5.50;73.90;;;;;;5071076;28;20078;-71
2023/12/26 02:02:18;;;;;;;8.48;3.15;;;5.50;74.60;;;;;;5071927;28;20044;-72
2023/12/26 02:04:45;;;;;;;4.20;2.80;;;5.50;74.70;;;;;;5072661;28;20055;-72
2023/12/26 02:07:10;;;;;;;;;;;5.60;74.80;;;;;;5056147;28;20045;-71
2023/12/26 02:09:37;;;;;;;3.78;1.48;;;5.60;74.60;;;;;;5072425;28;19920;-72
2023/12/26 02:12:03;;;;;;;4.20;3.00;;;5.60;74.40;;;;;;5072308;28;20059;-72
2023/12/26 02:14:29;;;;;;;;;;;5.60;74.40;;;;;;5072462;28;20043;-72
2023/12/26 02:16:57;;;;;;;8.65;3.92;;;5.70;74.50;;;;;;5070183;28;19920;-73
2023/12/26 02:19:25;;;;;;;3.78;2.40;;;5.80;74.00;;;;;;5072073;28;20028;-72
2023/12/26 02:21:51;;;;;;;6.50;4.15;;;5.80;74.00;;;;;;5072667;28;20037;-72
2023/12/26 02:24:17;;;;;;;9.40;3.83;;;5.90;74.00;;;;;;5073423;28;20040;-71
2023/12/26 02:26:44;;;;;;;4.93;3.05;;;6.00;74.10;;;;;;5071055;28;20075;-71
2023/12/26 02:29:10;;;;;;;5.60;2.95;;;6.00;73.90;;;;;;5072409;28;20036;-72
2023/12/26 02:31:39;;;;;;;7.25;3.72;;;6.00;74.00;;;;;;5071794;28;20043;-71
2023/12/26 02:34:06;;;;;;;6.25;3.47;;;6.10;73.90;;;;;;5071597;28;20032;-72
2023/12/26 02:36:33;;;;;;;12.23;4.20;;;6.20;73.70;;;;;;5072961;28;20025;-71
2023/12/26 02:38:59;;;;;;;;;;;6.20;73.80;;;;;;5073492;28;20086;-72
2023/12/26 02:41:25;;;;;;;8.07;4.10;;;6.30;73.60;;;;;;5069983;28;19920;-72
2023/12/26 02:43:51;;;;;;;7.55;4.38;;;6.30;73.50;;;;;;5067246;28;20032;-71
2023/12/26 02:46:17;;;;;;;8.35;3.75;;;6.30;73.50;;;;;;5071006;28;20024;-72
2023/12/26 02:48:43;;;;;;;4.43;2.40;;;6.40;73.50;;;;;;5069449;28;20048;-71
2023/12/26 02:51:10;;;;;;;4.38;2.95;;;6.50;73.60;;;;;;5072079;28;20036;-72
2023/12/26 02:53:36;;;;;;;6.22;3.13;;;6.50;73.70;;;;;;5072624;28;20355;-71
2023/12/26 02:56:02;;;;;;;4.75;3.50;;;6.60;74.20;;;;;;5072167;28;20032;-72
2023/12/26 02:58:29;;;;;;;;;;;6.60;74.20;;;;;;5072049;28;20044;-72
2023/12/26 03:00:55;;;;;;;3.95;2.10;;;6.60;74.00;;;;;;5071269;28;19917;-71
2023/12/26 03:03:21;;;;;;;3.78;2.08;;;6.70;74.10;;;;;;5061331;28;20294;-72
2023/12/26 03:05:47;;;;;;;1.85;1.20;;;6.70;74.10;;;;;;5069187;28;20378;-71
2023/12/26 03:08:13;;;;;;;5.38;2.20;;;6.80;74.30;;;;;;5072462;28;20032;-72
2023/12/26 03:10:39;;;;;;;6.25;2.92;;;6.80;74.40;;;;;;5071549;28;20398;-72
2023/12/26 03:13:05;;;;;;;5.82;2.53;;;6.80;74.40;;;;;;5072420;28;20033;-71
2023/12/26 03:15:31;;;;;;;3.72;1.65;;;6.80;74.60;;;;;;5070898;28;20093;-72
2023/12/26 03:17:57;;;;;;;3.85;2.60;;;6.80;74.60;;;;;;5071686;28;20028;-72
2023/12/26 03:20:23;;;;;;;5.00;2.15;;;6.80;74.70;;;;;;5070393;28;20139;-72
2023/12/26 03:22:49;;;;;;;5.78;3.45;;;6.90;74.90;;;;;;5068942;28;20025;-71
2023/12/26 03:25:15;;;;;;;6.00;2.22;;;6.90;74.60;;;;;;5071029;28;20060;-72
2023/12/26 03:27:41;;;;;;;6.43;3.05;;;7.00;74.50;;;;;;5070973;28;20047;-71
2023/12/26 03:30:08;;;;;;;4.15;1.88;;;7.00;74.50;;;;;;5052566;28;20501;-71
2023/12/26 03:32:34;;;;;;;4.88;1.75;;;7.00;74.30;;;;;;5071626;28;20028;-72
2023/12/26 03:35:01;;;;;;;3.50;1.85;;;7.00;74.50;;;;;;5067007;28;20106;-71
2023/12/26 03:37:27;;;;;;;2.97;2.20;;;7.00;74.20;;;;;;5066735;28;20099;-71
2023/12/26 03:39:53;;;;;;;1.35;0.88;;;7.10;74.30;;;;;;5070953;28;20044;-72
2023/12/26 03:42:19;;;;;;;4.43;2.40;;;7.10;74.20;;;;;;5071769;28;20043;-72
2023/12/26 03:44:47;;;;;;;2.55;1.77;;;7.10;74.20;;;;;;5072169;28;20035;-71
2023/12/26 03:47:13;;;;;;;7.10;2.65;;;7.10;74.40;;;;;;5070850;28;20040;-72
2023/12/26 03:49:40;;;;;;;4.05;2.28;;;7.20;74.50;;;;;;5066458;28;20028;-72
2023/12/26 03:52:06;;;;;;;2.60;1.58;;;7.10;74.10;;;;;;5069867;28;20055;-72
2023/12/26 03:54:32;;;;;;;1.73;1.30;;;7.20;74.70;;;;;;5068754;28;20494;-72
2023/12/26 03:56:58;;;;;;;1.20;0.80;;;7.20;74.60;;;;;;5070532;28;20063;-71
2023/12/26 03:59:24;;;;;;;3.70;1.20;;;7.20;74.60;;;;;;5072129;28;20043;-71
2023/12/26 04:01:50;;;;;;;2.70;2.05;;;7.30;74.70;;;;;;5071593;28;20086;-72
2023/12/26 04:04:16;;;;;;;6.00;2.83;;;7.30;74.60;;;;;;5070794;28;20040;-72
2023/12/26 04:06:42;;;;;;;7.30;3.10;;;7.30;74.70;;;;;;5071099;28;20071;-72
2023/12/26 04:09:09;;;;;;;1.27;0.73;;;7.30;74.70;;;;;;5073937;28;20048;-71
2023/12/26 04:11:35;;;;;;;2.17;1.55;;;7.30;74.80;;;;;;5072392;28;20116;-72
2023/12/26 04:14:01;;;;;;;1.63;1.40;;;7.30;75.60;;;;;;5074386;28;20071;-71
2023/12/26 04:16:27;;;;;;;3.03;2.47;;;7.30;74.60;;;;;;5057696;28;20057;-71
2023/12/26 04:18:53;;;;;;;3.10;2.03;;;7.30;74.70;;;;;;5075597;28;20086;-72
2023/12/26 04:21:19;;;;;;;6.30;3.40;;;7.30;74.90;;;;;;5073862;28;20128;-72
2023/12/26 04:23:45;;;;;;;2.80;1.90;;;7.40;75.10;;;;;;5075153;28;20420;-72
2023/12/26 04:26:11;;;;;;;4.80;2.30;;;7.40;74.90;;;;;;5070118;28;20162;-72
2023/12/26 04:28:37;;;;;;;1.75;1.10;;;7.40;74.90;;;;;;5071753;28;20044;-72
2023/12/26 04:31:04;;;;;;;1.65;1.13;;;7.40;75.00;;;;;;5074756;28;20525;-73
2023/12/26 04:33:30;;;;;;;1.80;0.80;;;7.40;74.90;;;;;;5075263;28;20120;-71
2023/12/26 04:35:56;;;;;;;2.35;0.80;;;7.40;75.10;;;;;;5074253;28;20513;-72
2023/12/26 04:38:22;;;;;;;3.78;1.67;;;7.40;75.50;;;;;;5074745;28;20044;-71
2023/12/26 04:40:48;;;;;;;2.28;1.10;;;7.30;75.10;;;;;;5069657;28;20032;-72
2023/12/26 04:43:17;;;;;;;4.80;3.00;;;7.30;75.20;;;;;;5068878;28;20402;-72
2023/12/26 04:45:43;;;;;;;1.60;1.17;;;7.30;75.30;;;;;;5074806;28;20437;-72
2023/12/26 04:48:09;;;;;;;;;;;7.30;75.30;;;;;;5057689;28;20490;-71
2023/12/26 04:50:36;;;;;;;3.95;2.45;;;7.30;75.30;;;;;;5073109;28;19986;-71
2023/12/26 04:55:47;;;;;;;4.35;1.60;;;7.20;74.90;;;;;;5068903;28;20115;-71
2023/12/26 04:58:13;;;;;;;1.38;0.80;;;7.20;75.20;;;;;;5072775;28;20037;-72
2023/12/26 05:00:39;;;;;;;3.20;1.65;;;7.20;75.20;;;;;;5070690;28;20045;-71
2023/12/26 05:03:06;;;;;;;2.92;1.95;;;7.20;75.20;;;;;;5073605;28;20370;-71
2023/12/26 05:05:32;;;;;;;4.75;1.20;;;7.10;75.20;;;;;;5074509;28;20493;-71
2023/12/26 05:07:58;;;;;;;0.77;0.60;;;7.10;75.30;;;;;;5072250;28;20048;-70
2023/12/26 05:10:24;;;;;;;3.05;1.38;;;7.10;75.30;;;;;;5071272;28;20094;-71
2023/12/26 05:12:52;;;;;;;6.15;3.20;;;7.00;75.20;;;;;;5072605;28;20028;-70
2023/12/26 05:15:18;;;;;;;4.45;1.50;;;7.00;75.20;;;;;;5068092;28;20037;-70
2023/12/26 05:17:44;;;;;;;3.70;2.40;;;7.00;75.10;;;;;;5070885;28;20033;-69
2023/12/26 05:20:11;;;;;;;5.88;1.83;;;7.00;75.20;;;;;;5071435;28;20040;-70
2023/12/26 05:22:37;;;;;;;;;;;7.00;75.20;;;;;;5072558;28;20025;-71
2023/12/26 05:25:03;;;;;;;3.15;1.60;;;7.00;75.00;;;;;;5073571;28;19920;-70
2023/12/26 05:27:29;;;;;;;2.65;1.83;;;6.90;75.20;;;;;;5054536;28;20021;-70
2023/12/26 05:29:55;;;;;;;0.98;0.68;;;6.90;75.20;;;;;;5073101;28;20045;-70
2023/12/26 05:32:21;;;;;;;1.23;0.90;;;6.80;75.30;;;;;;5069869;28;20041;-69
2023/12/26 05:34:48;;;;;;;2.47;1.88;;;6.80;75.30;;;;;;5071903;28;20037;-69
2023/12/26 05:37:14;;;;;;;3.22;1.30;;;6.80;75.30;;;;;;5073137;28;20062;-70
2023/12/26 05:39:44;;;;;;;2.83;1.20;;;6.80;75.30;;;;;;5071640;28;20040;-70
2023/12/26 05:42:10;;;;;;;1.73;0.98;;;6.70;75.20;;;;;;5071603;28;20071;-70
2023/12/26 05:44:36;;;;;;;1.30;0.65;;;6.70;75.30;;;;;;5067700;28;20432;-70
2023/12/26 05:47:04;;;;;;;3.13;1.13;;;6.60;75.20;;;;;;5069414;28;20029;-71
2023/12/26 05:49:31;;;;;;;3.83;1.60;;;6.60;75.20;;;;;;5070230;28;20032;-72
2023/12/26 05:51:56;;;;;;;;;;;6.60;75.10;;;;;;5072622;28;20044;-70
2023/12/26 05:54:22;;;;;;;3.28;1.67;;;6.60;74.90;;;;;;5055049;28;19920;-70
2023/12/26 05:56:49;;;;;;;3.55;2.92;;;6.60;74.90;;;;;;5054613;28;20024;-70
2023/12/26 05:59:15;;;;;;;1.63;1.00;;;6.50;75.00;;;;;;5053603;28;20047;-69
2023/12/26 06:01:59;;;;;;;2.30;1.25;;;6.40;75.00;;;;;;5065888;28;20033;-70
2023/12/26 06:04:25;;;;;;;2.40;1.65;;;6.40;75.20;;;;;;5072524;28;20385;-72
2023/12/26 06:06:51;;;;;;;2.67;2.05;;;6.30;76.00;;;;;;5027930;28;1194246;-72
2023/12/26 06:09:17;;;;;;;2.88;2.08;;;6.40;75.10;;;;;;5072283;28;20037;-70
2023/12/26 06:11:43;;;;;;;6.00;1.95;;;6.30;75.10;;;;;;5054775;28;20082;-70
2023/12/26 06:14:10;;;;;;;3.72;2.45;;;6.40;75.20;;;;;;5073549;28;20079;-70
2023/12/26 06:16:36;;;;;;;1.45;1.02;;;6.40;75.10;;;;;;5071501;28;20064;-70
2023/12/26 06:19:02;;;;;;;3.33;1.65;;;6.40;74.90;;;;;;5068000;28;20044;-70
2023/12/26 06:21:28;;;;;;;1.50;0.85;;;6.40;74.60;;;;;;5071314;28;20032;-71
2023/12/26 06:23:54;;;;;;;4.75;1.00;;;6.40;74.70;;;;;;5070088;28;20424;-72
2023/12/26 06:26:20;;;;;;;3.42;2.28;;;6.50;74.60;;;;;;5055166;28;20028;-71
2023/12/26 06:28:46;;;;;;;9.02;2.50;;;6.50;74.40;;;;;;5073244;28;20040;-72
2023/12/26 06:31:14;;;;;;;3.72;2.13;;;6.60;74.20;;;;;;5069532;28;20078;-72
2023/12/26 06:33:40;;;;;;;1.42;0.80;;;6.50;73.50;;;;;;5067582;28;20033;-73
2023/12/26 06:36:07;;;;;;;2.58;1.15;;;6.60;73.90;;;;;;5071767;28;20413;-72
2023/12/26 06:38:33;;;;;;;2.58;1.42;;;6.60;73.40;;;;;;5068482;28;20041;-72
2023/12/26 06:40:59;;;;;;;1.90;1.20;;;6.60;74.00;;;;;;5071052;28;20086;-71
2023/12/26 06:43:25;;;;;;;3.53;1.20;;;6.60;74.10;;;;;;5071732;28;20032;-72
2023/12/26 06:45:51;;;;;;;3.17;1.33;;;6.70;74.20;;;;;;5072614;28;20044;-70
2023/12/26 06:48:17;;;;;;;3.85;1.98;;;6.70;74.10;;;;;;5071500;28;20060;-71
2023/12/26 06:50:43;;;;;;;2.20;1.25;;;6.70;74.00;;;;;;5050192;28;20029;-69
2023/12/26 06:53:09;;;;;;;3.38;2.17;;;6.70;74.10;;;;;;5069529;28;20041;-72
2023/12/26 06:55:35;;;;;;;6.53;3.17;;;6.70;74.10;;;;;;5053064;28;20454;-72
2023/12/26 06:58:01;;;;;;;3.50;2.08;;;6.60;74.20;;;;;;5072640;28;20029;-71
2023/12/26 07:00:27;;;;;;;1.38;0.90;;;6.60;74.40;;;;;;5071901;28;20087;-71
2023/12/26 07:02:55;;;;;;;4.85;3.53;;;6.50;74.60;;;;;;5072415;28;20115;-70
2023/12/26 07:05:21;;;;;;;3.30;1.98;;;6.50;74.80;;;;;;5070010;28;20521;-70
2023/12/26 07:07:49;;;;;;;6.93;1.92;;;6.50;74.90;;;;;;5070618;28;20464;-69
2023/12/26 07:10:15;;;;;;;3.45;2.67;;;6.50;74.80;;;;;;5053214;28;20131;-69
2023/12/26 07:12:41;;;;;;;3.78;2.25;;;6.60;74.60;;;;;;5069823;28;20029;-70
2023/12/26 07:15:08;;;;;;;6.03;1.45;;;6.70;74.40;;;;;;5071116;28;20040;-70
2023/12/26 07:17:34;;;;;;;5.70;3.05;;;6.80;74.10;;;;;;5071120;28;20032;-70
2023/12/26 07:20:00;;;;;;;2.70;1.98;;;6.80;74.10;;;;;;5072736;28;20039;-70
2023/12/26 07:22:26;;;;;;;4.13;3.22;;;6.90;74.00;;;;;;5069022;28;20082;-69
2023/12/26 07:24:52;;;;;;;3.30;1.45;;;7.00;73.80;;;;;;5070754;28;20032;-70
2023/12/26 07:27:18;;;;;;;3.20;1.77;;;7.10;73.80;;;;;;5066769;28;20447;-70
2023/12/26 07:29:44;;;;;;;3.33;2.35;;;7.10;73.60;;;;;;5069905;28;20093;-70
2023/12/26 07:32:10;;;;;;;3.20;2.40;;;7.20;73.60;;;;;;5070171;28;20033;-70
2023/12/26 07:34:40;;;;;;;5.78;2.75;;;7.20;73.80;;;;;;5071064;28;20078;-70
2023/12/26 07:37:07;;;;;;;3.05;2.65;;;7.30;73.90;;;;;;5053151;28;20120;-70
2023/12/26 07:39:33;;;;;;;4.40;3.97;;;7.30;73.80;;;;;;5066574;28;20051;-70
2023/12/26 07:42:00;;;;;;;3.25;2.55;;;7.40;73.80;;;;;;5069559;28;20480;-70
2023/12/26 07:44:26;;;;;;;13.13;6.13;;;7.40;73.70;;;;;;5040163;28;20059;-71
2023/12/26 07:46:52;;;;;;;4.63;2.13;;;7.50;74.50;;;;;;5070747;28;20033;-71
2023/12/26 07:49:18;;;;;;;6.10;3.40;;;7.50;73.40;;;;;;5072044;28;20390;-72
2023/12/26 07:51:45;;;;;;;29.75;4.60;;;7.60;73.40;;;;;;5069864;28;20032;-72
2023/12/26 07:54:11;;;;;;;3.35;1.90;;;7.60;73.30;;;;;;5069389;28;20037;-71
2023/12/26 07:56:38;;;;;;;3.55;2.83;;;7.70;73.40;;;;;;5070314;28;20036;-72
2023/12/26 07:59:04;;;;;;;;;;;7.80;73.30;;;;;;5070612;28;20493;-71
2023/12/26 08:01:31;;;;;;;4.00;1.90;;;7.80;73.20;;;;;;5068023;28;20030;-72
2023/12/26 08:03:57;;;;;;;6.72;3.17;;;7.90;73.00;;;;;;5070638;28;20042;-72
2023/12/26 08:06:27;;;;;;;;;;;8.00;72.20;;;;;;5072111;28;20040;-72
2023/12/26 08:08:53;;;;;;;6.07;3.25;;;8.00;72.30;;;;;;5071828;28;19920;-73
2023/12/26 08:11:21;;;;;;;8.80;3.05;;;8.00;72.00;;;;;;5064330;28;20121;-69
2023/12/26 08:13:47;;;;;;;5.68;3.70;;;8.00;72.60;;;;;;5068896;28;20070;-70
2023/12/26 08:16:13;;;;;;;5.25;2.35;;;8.00;72.90;;;;;;5070906;28;20025;-70
2023/12/26 08:18:39;;;;;;;;;;;8.10;72.90;;;;;;5066780;28;20037;-73
2023/12/26 08:21:06;;;;;;;4.45;2.75;;;8.10;73.00;;;;;;5103725;28;19927;-72
2023/12/26 08:23:35;;;;;;;4.95;2.65;;;8.20;72.80;;;;;;5071799;28;20036;-71
2023/12/26 08:26:06;;;;;;;5.72;3.03;;;8.20;72.80;;;;;;5070075;28;20029;-72
2023/12/26 08:28:33;;;;;;;8.82;4.28;;;8.10;72.90;;;;;;5066341;28;20040;-72
2023/12/26 08:30:59;;;;;;;13.35;6.82;;;8.10;73.20;;;;;;5068133;28;20040;-71
2023/12/26 08:33:25;;;;;;;9.35;5.22;;;8.10;73.20;;;;;;5069998;28;20036;-72
2023/12/26 08:35:51;;;;;;;7.55;4.78;;;8.10;73.60;;;;;;5068099;28;20097;-71
2023/12/26 08:38:18;;;;;;;6.90;4.05;;;8.20;73.70;;;;;;5070165;28;20037;-73
2023/12/26 08:40:44;;;;;;;4.22;2.03;;;8.20;73.40;;;;;;5069858;28;20029;-72
2023/12/26 08:43:10;;;;;;;4.05;2.88;;;8.30;73.20;;;;;;5070318;28;20037;-72
2023/12/26 08:45:37;;;;;;;4.50;2.42;;;8.40;73.00;;;;;;5065889;28;20086;-72
2023/12/26 08:48:03;;;;;;;2.92;1.58;;;8.40;72.80;;;;;;5070275;28;20482;-72
2023/12/26 08:50:29;;;;;;;7.97;3.40;;;8.60;72.00;;;;;;5067066;28;20033;-71
2023/12/26 08:52:55;;;;;;;4.70;1.95;;;8.70;72.40;;;;;;5070194;28;20496;-72
2023/12/26 08:55:21;;;;;;;2.05;1.15;;;8.90;72.10;;;;;;5073553;28;20044;-72
2023/12/26 08:57:47;;;;;;;3.83;2.38;;;9.00;71.70;;;;;;5074824;28;20040;-72
2023/12/26 09:00:14;;;;;;;4.72;2.35;;;9.20;71.90;;;;;;5072980;28;20037;-72
2023/12/26 09:05:27;;;;;;;3.28;1.55;;;10.10;70.70;;;;;;5073109;28;20051;-72
2023/12/26 09:07:54;;;;;;;2.72;1.38;;;12.20;64.70;;;;;;5073739;28;20036;-72
2023/12/26 09:10:20;;;;;;;;;;;13.20;59.80;;;;;;5056488;28;20073;-72
2023/12/26 09:12:47;;;;;;;3.00;2.03;;;13.40;60.10;;;;;;5074596;28;19945;-72
2023/12/26 09:15:13;;;;;;;1.15;0.98;;;13.30;60.20;;;;;;5074393;28;20036;-72
2023/12/26 09:17:39;;;;;;;3.55;1.90;;;13.20;61.20;;;;;;5072951;28;20040;-72
2023/12/26 09:20:05;;;;;;;4.18;2.40;;;13.20;61.30;;;;;;5068681;28;20403;-72
2023/12/26 09:22:31;;;;;;;8.23;2.05;;;13.70;58.80;;;;;;5073031;28;20116;-72
2023/12/26 09:24:57;;;;;;;3.88;2.05;;;14.40;57.70;;;;;;5070997;28;20052;-72
2023/12/26 09:27:23;;;;;;;3.60;1.88;;;14.80;56.50;;;;;;5073524;28;20029;-72
2023/12/26 09:29:50;;;;;;;4.80;4.18;;;14.70;56.90;;;;;;5056180;28;20090;-72
2023/12/26 09:32:16;;;;;;;6.57;4.53;;;14.30;57.60;;;;;;5071210;28;20037;-72
2023/12/26 09:34:42;;;;;;;8.13;3.80;;;14.70;56.70;;;;;;5074161;28;20381;-71
2023/12/26 09:37:08;;;;;;;2.42;0.88;;;14.90;55.50;;;;;;5068789;28;20037;-72
2023/12/26 09:39:34;;;;;;;1.23;0.95;;;14.70;56.60;;;;;;5069828;28;20040;-70
2023/12/26 09:42:04;;;;;;;1.73;0.85;;;14.30;57.70;;;;;;5073615;28;20041;-71
2023/12/26 09:44:31;;;;;;;0.95;0.50;;;13.90;58.60;;;;;;5072533;28;20371;-70
2023/12/26 09:46:58;;;;;;;0.55;0.28;;;13.60;59.70;;;;;;5072279;28;20032;-70
2023/12/26 09:49:24;;;;;;;4.03;0.82;;;13.40;59.00;;;;;;5072822;28;20071;-69
2023/12/26 09:51:52;;;;;;;1.98;0.60;;;13.50;58.20;;;;;;5071616;28;20177;-70
2023/12/26 09:54:21;;;;;;;1.55;0.65;;;13.40;57.90;;;;;;5072058;28;20383;-70
2023/12/26 09:56:48;;;;;;;0.63;0.40;;;13.30;58.10;;;;;;5070584;28;20024;-70
2023/12/26 09:59:14;;;;;;;1.23;0.88;;;13.20;58.70;;;;;;5072491;28;20037;-70
2023/12/26 10:01:44;;;;;;;1.05;0.70;;;13.30;59.50;;;;;;5071731;28;20533;-71
2023/12/26 10:04:10;;;;;;;0.65;0.65;;;13.50;59.70;;;;;;5073635;28;20056;-70
2023/12/26 10:06:36;;;;;;;1.60;1.15;;;14.50;58.20;;;;;;5071185;28;20068;-70
2023/12/26 10:09:02;;;;;;;1.85;1.75;;;15.80;54.50;;;;;;5071689;28;20028;-70
2023/12/26 10:11:29;;;;;;;8.32;1.30;;;16.40;51.70;;;;;;5072233;28;20029;-70
2023/12/26 10:13:55;;;;;;;0.77;0.47;;;16.60;50.00;;;;;;5070839;28;20414;-69
2023/12/26 10:16:22;;;;;;;1.58;0.73;;;16.10;51.20;;;;;;5073338;28;20028;-70
2023/12/26 10:18:50;;;;;;;0.47;0.28;;;16.80;48.80;;;;;;5073361;28;20048;-69
2023/12/26 10:21:17;;;;;;;0.93;0.90;;;17.50;46.70;;;;;;5055003;28;20033;-70
2023/12/26 10:23:45;;;;;;;0.70;0.30;;;17.50;45.80;;;;;;5068185;28;20024;-70
2023/12/26 10:26:11;;;;;;;0.40;0.40;;;17.30;45.40;;;;;;5071773;28;20025;-69
2023/12/26 10:28:39;;;;;;;0.88;0.20;;;17.40;44.90;;;;;;5073258;28;20098;-69
2023/12/26 10:31:25;;;;;;;1.65;0.80;;;17.40;45.20;;;;;;5071435;28;20456;-70
2023/12/26 10:33:51;;;;;;;0.20;0.20;;;17.20;44.20;;;;;;5071484;28;20370;-69
2023/12/26 10:36:20;;;;;;;0.70;0.30;;;17.20;44.10;;;;;;5072357;28;20028;-71
2023/12/26 10:38:46;;;;;;;25.40;0.98;;;16.80;44.60;;;;;;5061250;28;20039;-69
2023/12/26 10:41:31;;;;;;;0.28;0.22;;;17.00;43.10;;;;;;5069600;28;20432;-70
2023/12/26 10:43:59;;;;;;;0.10;0.10;;;16.90;44.80;;;;;;5071559;28;20078;-69
2023/12/26 10:46:26;;;;;;;0.15;0.15;;;17.10;44.40;;;;;;5071507;28;20036;-70
2023/12/26 10:48:56;;;;;;;0.10;0.10;;;17.10;43.20;;;;;;5071398;28;20045;-71
2023/12/26 10:54:28;;;;;;;0.25;0.20;;;17.70;41.50;;;;;;5078634;28;20039;-69
2023/12/26 10:56:58;;;;;;;0.13;0.10;;;18.30;40.60;;;;;;5070107;28;20040;-70
2023/12/26 10:59:24;;;;;;;0.10;0.10;;;18.10;39.20;;;;;;5071450;28;20045;-70
2023/12/26 11:01:50;;;;;;;0.43;0.10;;;18.10;38.80;;;;;;5070786;28;20424;-70
2023/12/26 11:04:16;;;;;;;0.10;0.10;;;18.90;37.60;;;;;;5071472;28;20044;-71
2023/12/26 11:06:42;;;;;;;0.47;0.15;;;19.50;36.40;;;;;;5067009;28;20056;-69
2023/12/26 11:09:10;;;;;;;0.20;0.13;;;19.70;35.70;;;;;;5054562;28;20043;-69
2023/12/26 11:11:38;;;;;;;0.22;0.13;;;20.10;35.50;;;;;;5070710;28;20502;-71
2023/12/26 11:14:06;;;;;;;0.55;0.40;;;19.20;35.40;;;;;;5071162;28;20390;-71
2023/12/26 11:16:33;;;;;;;3.67;0.30;;;18.50;37.30;;;;;;5066223;28;20044;-71
2023/12/26 11:19:01;;;;;;;1.17;0.82;;;18.80;37.10;;;;;;5066894;28;20086;-69
2023/12/26 11:21:29;;;;;;;0.63;0.38;;;18.80;36.10;;;;;;5066724;28;20048;-69
2023/12/26 11:23:56;;;;;;;0.10;0.10;;;18.40;37.40;;;;;;5052362;28;20493;-70
2023/12/26 11:26:22;;;;;;;0.10;0.10;;;17.90;38.50;;;;;;5070912;28;20032;-69
2023/12/26 11:28:49;;;;;;;0.30;0.25;;;18.10;37.60;;;;;;5070927;28;20041;-70
2023/12/26 11:31:16;;;;;;;;;;;18.50;37.10;;;;;;5069820;28;20044;-70
2023/12/26 11:33:43;;;;;;;0.22;0.20;;;19.00;36.10;;;;;;5070286;28;19924;-69
2023/12/26 11:36:10;;;;;;;1.30;0.90;;;18.50;36.00;;;;;;5071605;28;20085;-70
2023/12/26 11:38:37;;;;;;;0.00;0.00;;;18.10;37.60;;;;;;5068979;28;20093;-69
2023/12/26 11:41:05;;;;;;;1.77;0.28;;;17.60;37.40;;;;;;5071628;28;20033;-70
2023/12/26 11:43:32;;;;;;;1.65;1.17;;;17.30;39.20;;;;;;5053895;28;20043;-69
2023/12/26 11:45:59;;;;;;;1.98;0.65;;;18.30;37.40;;;;;;5069671;28;20029;-70
2023/12/26 11:48:25;;;;;;;;;;;19.30;34.30;;;;;;5068535;28;20102;-69
2023/12/26 11:50:51;;;;;;;0.38;0.20;;;18.80;34.80;;;;;;5061464;28;20374;-69
2023/12/26 11:53:17;;;;;;;0.10;0.10;;;18.10;36.40;;;;;;5065615;28;20041;-69
2023/12/26 11:55:43;;;;;;;0.10;0.10;;;17.70;37.40;;;;;;5069138;28;20029;-70
2023/12/26 11:58:09;;;;;;;0.38;0.30;;;18.00;37.20;;;;;;5070348;28;20447;-71
2023/12/26 12:00:35;;;;;;;;;;;19.10;34.30;;;;;;5050971;28;20441;-69
2023/12/26 12:03:01;;;;;;;0.45;0.30;;;19.90;33.30;;;;;;5053392;28;19969;-69
2023/12/26 12:05:28;;;;;;;0.30;0.30;;;19.40;34.00;;;;;;5069565;28;20048;-71
2023/12/26 12:08:13;;;;;;;0.00;0.00;;;19.00;35.30;;;;;;5070732;28;20044;-70
2023/12/26 12:11:16;;;;;;;0.30;0.30;;;18.30;36.90;;;;;;5061073;28;20406;-70
2023/12/26 12:14:03;;;;;;;0.15;0.15;;;18.30;37.60;;;;;;5071784;28;20370;-69
2023/12/26 12:16:29;;;;;;;0.70;0.10;;;18.10;36.30;;;;;;5051483;28;20045;-70
2023/12/26 12:19:02;;;;;;;1.25;1.10;;;17.60;37.60;;;;;;5070070;28;20032;-70
2023/12/26 12:21:38;;;;;;;0.98;0.38;;;17.40;37.90;;;;;;5067117;28;20391;-70
2023/12/26 12:24:05;;;;;;;1.98;1.55;;;17.70;38.00;;;;;;5053613;28;20028;-69
2023/12/26 12:27:09;;;;;;;0.10;0.10;;;17.60;37.60;;;;;;5067397;28;20048;-69
2023/12/26 12:30:12;;;;;;;0.57;0.57;;;17.30;38.00;;;;;;5061186;28;20039;-70
2023/12/26 12:32:38;;;;;;;0.13;0.13;;;17.30;37.90;;;;;;5052765;28;20061;-70
2023/12/26 12:35:24;;;;;;;0.98;0.73;;;17.30;38.00;;;;;;5055895;28;20079;-70
2023/12/26 12:37:49;;;;;;;0.10;0.10;;;17.40;37.10;;;;;;5060900;28;20431;-70
2023/12/26 12:40:16;;;;;;;0.10;0.10;;;17.50;37.60;;;;;;5072837;28;20040;-70
2023/12/26 12:42:42;;;;;;;;;;;17.70;37.20;;;;;;5072913;28;20020;-69
2023/12/26 12:45:08;;;;;;;0.35;0.30;;;17.80;36.70;;;;;;5072942;28;20392;-70
2023/12/26 12:47:34;;;;;;;0.77;0.30;;;17.90;36.70;;;;;;5072424;28;20029;-70
2023/12/26 12:50:00;;;;;;;;;;;18.30;37.00;;;;;;5074234;28;20032;-70
2023/12/26 12:52:27;;;;;;;0.13;0.13;;;18.30;34.70;;;;;;5074468;28;19962;-70
2023/12/26 12:54:53;;;;;;;0.77;0.60;;;18.30;35.30;;;;;;5075352;28;20043;-70
2023/12/26 12:57:19;;;;;;;0.65;0.65;;;18.90;34.30;;;;;;5074656;28;20036;-70
2023/12/26 12:59:45;;;;;;;0.10;0.10;;;19.10;34.60;;;;;;5072374;28;20048;-70
2023/12/26 13:02:12;;;;;;;0.05;0.05;;;19.40;33.00;;;;;;5055073;28;20542;-70
2023/12/26 13:04:57;;;;;;;0.10;0.10;;;18.90;33.80;;;;;;5054957;28;20040;-69